Time;durP1;ratioP1;P1;durP2;ratioP2;P2;SDS_P1;SDS_P2;PMS_P1;PMS_P2;Temp;Humidity;BMP_temperature;BMP_pressure;BME280_temperature;BME280_humidity;BME280_pressure;Samples;Min_cycle;Max_cycle;Signal;HPM_P1;HPM_P2
2021/05/29 00:00:57;;;;;;;7.07;5.43;;;;;;;;;;4966467;28;20031;-74
2021/05/29 00:03:25;;;;;;;8.30;6.00;;;;;;;;;;4950177;28;20034;-75
2021/05/29 00:05:51;;;;;;;10.13;5.93;;;;;;;;;;4951966;28;20098;-75
2021/05/29 00:08:17;;;;;;;9.33;6.20;;;;;;;;;;4950270;28;20089;-74
2021/05/29 00:10:45;;;;;;;9.43;6.23;;;;;;;;;;4950558;29;20055;-74
2021/05/29 00:13:11;;;;;;;10.27;6.43;;;;;;;;;;4951906;28;20055;-75
2021/05/29 00:15:38;;;;;;;9.47;5.93;;;;;;;;;;4966757;28;20041;-75
2021/05/29 00:18:05;;;;;;;11.23;6.40;;;;;;;;;;4950481;28;20035;-74
2021/05/29 00:20:30;;;;;;;8.20;6.13;;;;;;;;;;4969723;28;20023;-74
2021/05/29 00:22:56;;;;;;;12.80;6.90;;;;;;;;;;4953670;29;20031;-75
2021/05/29 00:25:22;;;;;;;7.97;5.73;;;;;;;;;;4969729;28;20093;-73
2021/05/29 00:27:47;;;;;;;12.07;6.17;;;;;;;;;;4953311;29;20035;-75
2021/05/29 00:30:13;;;;;;;10.03;6.10;;;;;;;;;;4954848;28;20396;-74
2021/05/29 00:32:39;;;;;;;29.63;7.13;;;;;;;;;;4953610;28;20031;-74
2021/05/29 00:35:07;;;;;;;10.83;6.50;;;;;;;;;;4969651;28;20496;-75
2021/05/29 00:37:32;;;;;;;9.93;6.80;;;;;;;;;;4953590;29;20066;-73
2021/05/29 00:39:58;;;;;;;10.27;6.17;;;;;;;;;;4954907;28;20110;-74
2021/05/29 00:42:23;;;;;;;10.33;7.33;;;;;;;;;;4969321;28;20527;-74
2021/05/29 00:44:52;;;;;;;12.93;6.53;;;;;;;;;;4955685;29;20085;-75
2021/05/29 00:47:19;;;;;;;10.73;6.87;;;;;;;;;;4961519;28;20456;-73
2021/05/29 00:49:45;;;;;;;10.63;6.53;;;;;;;;;;4957419;28;20031;-75
2021/05/29 00:52:13;;;;;;;12.03;7.83;;;;;;;;;;4954621;28;20118;-75
2021/05/29 00:54:39;;;;;;;8.60;6.67;;;;;;;;;;4969290;28;20023;-74
2021/05/29 00:57:04;;;;;;;8.47;5.63;;;;;;;;;;4969189;28;20551;-74
2021/05/29 00:59:31;;;;;;;8.83;5.87;;;;;;;;;;4969343;28;20042;-75
2021/05/29 01:01:57;;;;;;;6.17;4.90;;;;;;;;;;4953845;28;20031;-75
2021/05/29 01:04:22;;;;;;;5.83;4.67;;;;;;;;;;4968853;28;20027;-75
2021/05/29 01:06:48;;;;;;;7.70;4.97;;;;;;;;;;4969044;28;20019;-75
2021/05/29 01:09:13;;;;;;;5.07;4.53;;;;;;;;;;4952712;29;20508;-75
2021/05/29 01:11:39;;;;;;;6.80;5.10;;;;;;;;;;4952971;28;20144;-75
2021/05/29 01:14:04;;;;;;;7.57;5.10;;;;;;;;;;4968972;28;20526;-75
2021/05/29 01:16:45;;;;;;;9.17;4.90;;;;;;;;;;4952863;29;20035;-75
2021/05/29 01:19:14;;;;;;;5.80;4.60;;;;;;;;;;4954345;28;20031;-75
2021/05/29 01:21:41;;;;;;;7.80;4.73;;;;;;;;;;4969158;28;20059;-75
2021/05/29 01:24:07;;;;;;;8.23;5.20;;;;;;;;;;4954053;28;20027;-75
2021/05/29 01:26:33;;;;;;;9.87;5.57;;;;;;;;;;4953126;28;20031;-75
2021/05/29 01:28:58;;;;;;;6.40;4.93;;;;;;;;;;4952643;29;20035;-75
2021/05/29 01:31:27;;;;;;;6.40;5.07;;;;;;;;;;4953183;28;20078;-75
2021/05/29 01:33:57;;;;;;;9.47;4.70;;;;;;;;;;4968481;28;20038;-74
2021/05/29 01:36:24;;;;;;;6.67;4.80;;;;;;;;;;4952565;28;20271;-75
2021/05/29 01:38:50;;;;;;;7.07;4.93;;;;;;;;;;4953518;28;20034;-76
2021/05/29 01:41:17;;;;;;;10.53;7.30;;;;;;;;;;4936219;29;20031;-75
2021/05/29 01:43:44;;;;;;;10.77;7.50;;;;;;;;;;4953339;28;20054;-75
2021/05/29 01:46:11;;;;;;;10.77;7.30;;;;;;;;;;4968079;28;20086;-74
2021/05/29 01:48:40;;;;;;;11.07;8.10;;;;;;;;;;4968133;28;20496;-74
2021/05/29 01:51:07;;;;;;;16.07;7.27;;;;;;;;;;4968069;28;20118;-75
2021/05/29 01:53:33;;;;;;;13.03;8.00;;;;;;;;;;4968158;28;20114;-75
2021/05/29 01:55:59;;;;;;;11.97;7.50;;;;;;;;;;4953749;28;20488;-74
2021/05/29 01:58:25;;;;;;;12.57;7.90;;;;;;;;;;4953757;28;20527;-75
2021/05/29 02:00:51;;;;;;;11.13;7.67;;;;;;;;;;4952210;29;20051;-75
2021/05/29 02:03:16;;;;;;;11.37;7.17;;;;;;;;;;4952301;29;20031;-75
2021/05/29 02:05:42;;;;;;;11.43;7.90;;;;;;;;;;4953441;28;20031;-76
2021/05/29 02:08:10;;;;;;;11.53;7.53;;;;;;;;;;4951809;29;20027;-75
2021/05/29 02:10:38;;;;;;;11.00;7.50;;;;;;;;;;4952027;29;20026;-78
2021/05/29 02:13:07;;;;;;;15.13;9.67;;;;;;;;;;4952917;28;20065;-75
2021/05/29 02:15:36;;;;;;;11.27;8.17;;;;;;;;;;4953405;28;20038;-75
2021/05/29 02:18:05;;;;;;;11.70;7.70;;;;;;;;;;4935737;29;20035;-74
2021/05/29 02:20:52;;;;;;;13.63;8.33;;;;;;;;;;4952762;29;20027;-76
2021/05/29 02:23:26;;;;;;;13.77;8.07;;;;;;;;;;4953084;29;20107;-74
2021/05/29 02:25:57;;;;;;;11.83;8.03;;;;;;;;;;4967413;28;20423;-75
2021/05/29 02:28:23;;;;;;;11.63;7.83;;;;;;;;;;4952836;29;20448;-74
2021/05/29 02:30:51;;;;;;;11.93;7.97;;;;;;;;;;4952024;28;20042;-75
2021/05/29 02:33:18;;;;;;;12.37;8.23;;;;;;;;;;4951842;29;20100;-75
2021/05/29 02:35:44;;;;;;;12.30;8.07;;;;;;;;;;4951477;29;20023;-76
2021/05/29 02:38:10;;;;;;;11.03;7.33;;;;;;;;;;4951196;28;20039;-74
2021/05/29 02:40:36;;;;;;;11.80;8.03;;;;;;;;;;4951431;29;20369;-74
2021/05/29 02:43:02;;;;;;;12.93;8.33;;;;;;;;;;4952297;28;20051;-73
2021/05/29 02:45:28;;;;;;;15.40;8.70;;;;;;;;;;4952366;28;20649;-74
2021/05/29 02:47:54;;;;;;;12.80;8.73;;;;;;;;;;4951922;28;20090;-75
2021/05/29 02:50:20;;;;;;;10.97;7.70;;;;;;;;;;4952798;28;20141;-75
2021/05/29 02:52:46;;;;;;;16.03;9.37;;;;;;;;;;4950779;29;20023;-75
2021/05/29 02:55:15;;;;;;;13.47;8.53;;;;;;;;;;4950958;29;20589;-75
2021/05/29 02:57:42;;;;;;;15.87;8.90;;;;;;;;;;4950903;29;20027;-74
2021/05/29 03:00:10;;;;;;;16.70;7.87;;;;;;;;;;4952088;29;20431;-73
2021/05/29 03:02:36;;;;;;;13.57;8.77;;;;;;;;;;4952497;28;20027;-74
2021/05/29 03:05:04;;;;;;;14.23;8.27;;;;;;;;;;4950985;29;20028;-73
2021/05/29 03:07:29;;;;;;;16.33;8.47;;;;;;;;;;4950926;29;20352;-74
2021/05/29 03:09:55;;;;;;;13.83;7.93;;;;;;;;;;4950726;29;20521;-76
2021/05/29 03:12:20;;;;;;;11.70;7.77;;;;;;;;;;4950994;28;20562;-74
2021/05/29 03:14:46;;;;;;;12.83;7.60;;;;;;;;;;4952388;28;20027;-75
2021/05/29 03:17:11;;;;;;;10.30;7.47;;;;;;;;;;4951607;28;20027;-75
2021/05/29 03:19:37;;;;;;;13.73;7.53;;;;;;;;;;4952202;28;20027;-74
2021/05/29 03:22:03;;;;;;;13.27;7.43;;;;;;;;;;4966995;28;20050;-75
2021/05/29 03:24:28;;;;;;;14.60;7.80;;;;;;;;;;4952953;28;20419;-75
2021/05/29 03:26:54;;;;;;;12.57;7.67;;;;;;;;;;4952694;28;20027;-75
2021/05/29 03:29:19;;;;;;;12.20;7.83;;;;;;;;;;4952800;28;20032;-75
2021/05/29 03:31:45;;;;;;;12.97;8.20;;;;;;;;;;4950501;29;20058;-76
2021/05/29 03:34:10;;;;;;;16.07;8.40;;;;;;;;;;4951882;28;20031;-75
2021/05/29 03:36:36;;;;;;;12.33;8.43;;;;;;;;;;4950427;29;20038;-75
2021/05/29 03:39:04;;;;;;;23.13;9.07;;;;;;;;;;4951895;28;20051;-74
2021/05/29 03:41:30;;;;;;;11.73;7.93;;;;;;;;;;4951705;28;20039;-75
2021/05/29 03:43:55;;;;;;;13.20;8.80;;;;;;;;;;4951741;29;20393;-76
2021/05/29 03:46:21;;;;;;;12.27;8.13;;;;;;;;;;4966707;28;20118;-75
2021/05/29 03:48:46;;;;;;;12.97;7.13;;;;;;;;;;4950695;28;20584;-75
2021/05/29 03:51:12;;;;;;;12.87;8.17;;;;;;;;;;4950419;28;20042;-73
2021/05/29 03:53:38;;;;;;;10.40;7.40;;;;;;;;;;4953164;28;20110;-75
2021/05/29 03:56:04;;;;;;;14.00;7.33;;;;;;;;;;4955709;28;20560;-74
2021/05/29 03:58:31;;;;;;;10.83;8.10;;;;;;;;;;4970395;28;20027;-76
2021/05/29 04:00:57;;;;;;;14.17;7.13;;;;;;;;;;4970142;28;20062;-74
2021/05/29 04:03:22;;;;;;;10.40;7.07;;;;;;;;;;4970370;28;20031;-75
2021/05/29 04:05:48;;;;;;;10.00;6.63;;;;;;;;;;4954318;28;20063;-75
2021/05/29 04:08:14;;;;;;;12.13;7.37;;;;;;;;;;4954954;28;20023;-74
2021/05/29 04:10:39;;;;;;;16.10;8.50;;;;;;;;;;4955191;28;20424;-74
2021/05/29 04:13:05;;;;;;;12.67;7.17;;;;;;;;;;4953531;28;20023;-75
2021/05/29 04:15:31;;;;;;;11.23;8.03;;;;;;;;;;4953897;28;20543;-75
2021/05/29 04:17:57;;;;;;;12.77;8.30;;;;;;;;;;4955090;28;20423;-74
2021/05/29 04:20:25;;;;;;;11.93;6.43;;;;;;;;;;4969672;28;20484;-75
2021/05/29 04:22:51;;;;;;;8.30;5.80;;;;;;;;;;4955087;28;20023;-75
2021/05/29 04:25:19;;;;;;;9.07;7.43;;;;;;;;;;4953648;28;20093;-75
2021/05/29 04:27:46;;;;;;;13.03;7.10;;;;;;;;;;4953563;28;20114;-73
2021/05/29 04:30:14;;;;;;;10.93;5.87;;;;;;;;;;4954526;28;20031;-74
2021/05/29 04:32:40;;;;;;;8.27;5.60;;;;;;;;;;4954786;28;20591;-74
2021/05/29 04:35:07;;;;;;;6.77;5.00;;;;;;;;;;4953307;28;20114;-75
2021/05/29 04:37:32;;;;;;;11.87;6.00;;;;;;;;;;4955124;28;20460;-73
2021/05/29 04:39:58;;;;;;;9.60;6.00;;;;;;;;;;4954419;28;20074;-74
2021/05/29 04:42:24;;;;;;;9.67;6.40;;;;;;;;;;4953407;28;20048;-74
2021/05/29 04:44:50;;;;;;;8.97;6.27;;;;;;;;;;4954393;29;20031;-74
2021/05/29 04:47:15;;;;;;;8.27;5.97;;;;;;;;;;4954256;28;20027;-76
2021/05/29 04:49:41;;;;;;;18.00;9.50;;;;;;;;;;4952852;28;20498;-75
2021/05/29 04:52:07;;;;;;;11.30;7.90;;;;;;;;;;4954240;28;20107;-74
2021/05/29 04:54:32;;;;;;;11.53;7.40;;;;;;;;;;4955060;28;20526;-74
2021/05/29 04:56:58;;;;;;;10.97;6.67;;;;;;;;;;4953038;28;20042;-74
2021/05/29 04:59:24;;;;;;;9.93;7.33;;;;;;;;;;4952946;29;20019;-74
2021/05/29 05:01:50;;;;;;;15.13;7.93;;;;;;;;;;4954751;28;20502;-77
2021/05/29 05:04:16;;;;;;;8.50;6.77;;;;;;;;;;4953756;28;20027;-74
2021/05/29 05:06:42;;;;;;;13.70;6.87;;;;;;;;;;4968409;28;20034;-74
2021/05/29 05:09:08;;;;;;;7.20;5.47;;;;;;;;;;4954224;28;20058;-74
2021/05/29 05:11:34;;;;;;;10.60;5.47;;;;;;;;;;4952993;28;20159;-74
2021/05/29 05:14:01;;;;;;;7.90;5.13;;;;;;;;;;4952663;28;20068;-74
2021/05/29 05:16:27;;;;;;;6.83;5.17;;;;;;;;;;4952375;28;20440;-74
2021/05/29 05:18:52;;;;;;;6.17;4.90;;;;;;;;;;4953098;29;20027;-75
2021/05/29 05:21:18;;;;;;;6.30;5.33;;;;;;;;;;4968796;28;20057;-75
2021/05/29 05:23:44;;;;;;;9.93;5.60;;;;;;;;;;4952807;28;20027;-75
2021/05/29 05:26:09;;;;;;;7.90;5.53;;;;;;;;;;4953496;28;20078;-75
2021/05/29 05:28:35;;;;;;;7.77;4.80;;;;;;;;;;4953975;28;20051;-75
2021/05/29 05:31:04;;;;;;;10.37;5.57;;;;;;;;;;4968328;28;20513;-75
2021/05/29 05:33:31;;;;;;;6.57;4.70;;;;;;;;;;4952265;29;20023;-75
2021/05/29 05:35:56;;;;;;;6.87;4.60;;;;;;;;;;4952987;29;20023;-75
2021/05/29 05:38:23;;;;;;;5.50;4.17;;;;;;;;;;4951905;29;20031;-75
2021/05/29 05:40:48;;;;;;;5.70;4.60;;;;;;;;;;4953777;28;20423;-75
2021/05/29 05:43:15;;;;;;;6.80;4.70;;;;;;;;;;4951986;29;20067;-74
2021/05/29 05:45:42;;;;;;;4.93;4.03;;;;;;;;;;4968134;28;20034;-74
2021/05/29 05:48:07;;;;;;;5.83;4.27;;;;;;;;;;4967684;28;20023;-75
2021/05/29 05:50:33;;;;;;;6.07;4.20;;;;;;;;;;4953226;28;20480;-75
2021/05/29 05:52:59;;;;;;;5.93;3.80;;;;;;;;;;4967882;28;20031;-74
2021/05/29 05:55:25;;;;;;;5.20;4.50;;;;;;;;;;4967688;28;20038;-76
2021/05/29 05:57:50;;;;;;;4.87;3.67;;;;;;;;;;4953106;29;20508;-74
2021/05/29 06:00:21;;;;;;;6.93;4.50;;;;;;;;;;4952549;28;20034;-75
2021/05/29 06:02:46;;;;;;;6.73;4.77;;;;;;;;;;4951433;29;20054;-74
2021/05/29 06:05:14;;;;;;;8.20;5.33;;;;;;;;;;4951510;29;20114;-74
2021/05/29 06:07:39;;;;;;;7.80;5.13;;;;;;;;;;4967780;28;20041;-76
2021/05/29 06:10:06;;;;;;;4.53;3.90;;;;;;;;;;4952508;28;20027;-75
2021/05/29 06:12:34;;;;;;;8.00;4.00;;;;;;;;;;4967947;28;20049;-75
2021/05/29 06:18:04;;;;;;;8.13;3.90;;;;;;;;;;4952435;28;20406;-75
2021/05/29 06:20:31;;;;;;;7.47;3.90;;;;;;;;;;4952664;28;20024;-74
2021/05/29 06:22:56;;;;;;;7.07;3.87;;;;;;;;;;4951832;28;20030;-74
2021/05/29 06:25:23;;;;;;;6.10;4.50;;;;;;;;;;4951465;28;20035;-75
2021/05/29 06:27:48;;;;;;;5.93;4.17;;;;;;;;;;4952272;29;20632;-73
2021/05/29 06:30:14;;;;;;;6.20;4.10;;;;;;;;;;4951523;28;20285;-75
2021/05/29 06:32:40;;;;;;;13.90;4.93;;;;;;;;;;4952671;28;20381;-75
2021/05/29 06:35:07;;;;;;;6.23;4.27;;;;;;;;;;4967002;28;20027;-74
2021/05/29 06:37:35;;;;;;;9.50;4.80;;;;;;;;;;4967251;28;20059;-74
2021/05/29 06:40:03;;;;;;;7.67;4.40;;;;;;;;;;4951001;29;20031;-75
2021/05/29 06:42:28;;;;;;;6.17;3.90;;;;;;;;;;4950693;29;20083;-74
2021/05/29 06:44:54;;;;;;;7.97;4.10;;;;;;;;;;4967607;28;20031;-75
2021/05/29 06:47:19;;;;;;;6.00;4.20;;;;;;;;;;4951946;28;20451;-74
2021/05/29 06:49:45;;;;;;;5.47;3.87;;;;;;;;;;4952017;28;20538;-74
2021/05/29 06:52:13;;;;;;;6.57;4.07;;;;;;;;;;4952551;28;20130;-75
2021/05/29 06:59:56;;;;;;;4.47;3.73;;;;;;;;;;4953828;29;20038;-75
2021/05/29 07:02:21;;;;;;;7.53;4.80;;;;;;;;;;4959219;28;20027;-75
2021/05/29 07:04:47;;;;;;;5.27;4.37;;;;;;;;;;4972484;28;20117;-74
2021/05/29 07:07:12;;;;;;;5.60;4.00;;;;;;;;;;4968132;28;20023;-74
2021/05/29 07:09:38;;;;;;;6.80;4.20;;;;;;;;;;4951944;28;20031;-74
2021/05/29 07:12:04;;;;;;;5.50;4.20;;;;;;;;;;4967816;28;20039;-74
2021/05/29 07:14:31;;;;;;;6.80;4.17;;;;;;;;;;4950787;29;20484;-75
2021/05/29 07:16:56;;;;;;;8.30;4.70;;;;;;;;;;4950807;28;20082;-76
2021/05/29 07:19:24;;;;;;;7.85;4.45;;;;;;;;;;4951142;28;20027;-75
2021/05/29 07:21:51;;;;;;;6.83;3.47;;;;;;;;;;4950668;29;20027;-74
2021/05/29 07:24:18;;;;;;;7.77;4.40;;;;;;;;;;4950627;29;20027;-75
2021/05/29 07:26:44;;;;;;;5.83;3.80;;;;;;;;;;4950849;29;20023;-74
2021/05/29 07:29:10;;;;;;;5.20;3.80;;;;;;;;;;4968954;28;20507;-74
2021/05/29 07:31:36;;;;;;;4.22;3.75;;;;;;;;;;4970765;28;20066;-74
2021/05/29 07:34:02;;;;;;;8.55;4.22;;;;;;;;;;4955846;28;20058;-75
2021/05/29 07:36:28;;;;;;;4.75;3.70;;;;;;;;;;4954484;28;20027;-75
2021/05/29 07:38:53;;;;;;;5.30;3.80;;;;;;;;;;4969848;28;20446;-76
2021/05/29 07:41:23;;;;;;;8.00;4.78;;;;;;;;;;4970329;28;20031;-76
2021/05/29 07:43:49;;;;;;;10.48;5.40;;;;;;;;;;4956171;28;20066;-75
2021/05/29 07:46:16;;;;;;;6.85;4.80;;;;;;;;;;4956104;28;20027;-75
2021/05/29 07:48:42;;;;;;;8.10;3.60;;;;;;;;;;4970758;28;20039;-76
2021/05/29 07:51:09;;;;;;;4.40;3.50;;;;;;;;;;4971181;28;20062;-76
2021/05/29 07:53:42;;;;;;;5.88;4.25;;;;;;;;;;4956330;28;20023;-76
2021/05/29 07:56:13;;;;;;;4.57;4.10;;;;;;;;;;4954634;29;20105;-74
2021/05/29 07:58:41;;;;;;;5.47;4.25;;;;;;;;;;4954005;28;20384;-75
2021/05/29 08:01:08;;;;;;;4.90;4.15;;;;;;;;;;4954147;28;20091;-76
2021/05/29 08:03:34;;;;;;;6.32;4.47;;;;;;;;;;4955430;28;20031;-75
2021/05/29 08:06:04;;;;;;;10.00;4.68;;;;;;;;;;4953569;28;20384;-75
2021/05/29 08:08:30;;;;;;;4.43;3.75;;;;;;;;;;4953443;28;20054;-75
2021/05/29 08:10:59;;;;;;;5.47;3.85;;;;;;;;;;4955444;28;20055;-74
2021/05/29 08:13:25;;;;;;;4.90;3.90;;;;;;;;;;4953719;28;20033;-76
2021/05/29 08:15:51;;;;;;;5.72;4.55;;;;;;;;;;4953732;28;20435;-75
2021/05/29 08:18:19;;;;;;;6.53;4.30;;;;;;;;;;4953701;29;20031;-75
2021/05/29 08:20:49;;;;;;;8.73;4.38;;;;;;;;;;4955597;28;20106;-75
2021/05/29 08:23:15;;;;;;;8.02;3.05;;;;;;;;;;4953524;28;20122;-76
2021/05/29 08:25:41;;;;;;;5.55;3.65;;;;;;;;;;4955035;28;20544;-75
2021/05/29 08:28:06;;;;;;;6.55;3.25;;;;;;;;;;4969304;28;20046;-75
2021/05/29 08:30:33;;;;;;;6.43;3.35;;;;;;;;;;4969415;28;20521;-75
2021/05/29 08:32:58;;;;;;;4.07;3.25;;;;;;;;;;4937360;29;20026;-74
2021/05/29 08:35:24;;;;;;;3.45;2.67;;;;;;;;;;4969603;28;20101;-74
2021/05/29 08:37:50;;;;;;;6.90;4.45;;;;;;;;;;4954823;28;20075;-76
2021/05/29 08:40:18;;;;;;;4.85;2.45;;;;;;;;;;4952889;28;20435;-75
2021/05/29 08:42:45;;;;;;;3.20;2.05;;;;;;;;;;4952998;29;20053;-74
2021/05/29 08:45:14;;;;;;;2.50;2.15;;;;;;;;;;4969254;28;20031;-75
2021/05/29 08:47:40;;;;;;;2.30;2.10;;;;;;;;;;4953373;28;20027;-75
2021/05/29 08:50:06;;;;;;;2.63;2.03;;;;;;;;;;4954661;28;20023;-74
2021/05/29 08:52:36;;;;;;;1.63;1.52;;;;;;;;;;4952606;28;20050;-76
2021/05/29 08:55:09;;;;;;;3.13;2.42;;;;;;;;;;4952907;28;20027;-76
2021/05/29 08:57:37;;;;;;;3.85;2.25;;;;;;;;;;4953181;29;20058;-74
2021/05/29 09:00:11;;;;;;;3.28;2.10;;;;;;;;;;4952948;28;20027;-76
2021/05/29 09:02:58;;;;;;;3.10;2.42;;;;;;;;;;4952974;28;20550;-74
2021/05/29 09:05:33;;;;;;;3.67;2.50;;;;;;;;;;4953243;28;20061;-75
2021/05/29 09:08:07;;;;;;;5.82;3.45;;;;;;;;;;4953122;28;20027;-74
2021/05/29 09:10:42;;;;;;;3.03;2.15;;;;;;;;;;4953257;28;20034;-75
2021/05/29 09:13:12;;;;;;;4.75;2.30;;;;;;;;;;4953274;29;20031;-76
2021/05/29 09:15:54;;;;;;;3.38;2.50;;;;;;;;;;4952525;29;20031;-75
2021/05/29 09:18:34;;;;;;;3.22;2.88;;;;;;;;;;4954067;28;20023;-76
2021/05/29 09:21:18;;;;;;;3.85;2.40;;;;;;;;;;4953971;29;20122;-74
2021/05/29 09:23:48;;;;;;;3.97;2.17;;;;;;;;;;4954582;28;20027;-75
2021/05/29 09:26:15;;;;;;;3.67;2.28;;;;;;;;;;4955884;28;20031;-77
2021/05/29 09:28:42;;;;;;;4.57;2.78;;;;;;;;;;4954688;28;20107;-76
2021/05/29 09:31:16;;;;;;;6.75;3.10;;;;;;;;;;4954643;28;20034;-74
2021/05/29 09:33:43;;;;;;;8.73;4.82;;;;;;;;;;4952529;28;20030;-75
2021/05/29 09:36:14;;;;;;;7.55;2.80;;;;;;;;;;4953859;28;20045;-75
2021/05/29 09:38:47;;;;;;;8.95;3.33;;;;;;;;;;4969906;28;20042;-78
2021/05/29 09:41:28;;;;;;;2.60;2.17;;;;;;;;;;4953504;28;20126;-75
2021/05/29 09:43:59;;;;;;;4.15;2.58;;;;;;;;;;4953627;28;20435;-75
2021/05/29 09:46:27;;;;;;;3.13;2.33;;;;;;;;;;4951900;28;20038;-74
2021/05/29 09:49:02;;;;;;;4.20;2.42;;;;;;;;;;4953679;28;20528;-76
2021/05/29 09:51:31;;;;;;;2.60;2.13;;;;;;;;;;4951157;28;20035;-75
2021/05/29 09:54:06;;;;;;;5.00;2.40;;;;;;;;;;4967633;28;20031;-75
2021/05/29 09:56:40;;;;;;;3.03;2.30;;;;;;;;;;4951425;29;20047;-75
2021/05/29 09:59:09;;;;;;;3.60;1.83;;;;;;;;;;4953071;28;20042;-76
2021/05/29 10:01:37;;;;;;;2.40;2.20;;;;;;;;;;4953258;28;20027;-75
2021/05/29 10:04:05;;;;;;;1.92;1.65;;;;;;;;;;4952195;28;20106;-74
2021/05/29 10:06:31;;;;;;;3.85;2.47;;;;;;;;;;4951961;28;20034;-74
2021/05/29 10:08:57;;;;;;;4.60;2.58;;;;;;;;;;4951474;29;20042;-75
2021/05/29 10:11:23;;;;;;;2.55;2.28;;;;;;;;;;4951818;29;20031;-76
2021/05/29 10:13:48;;;;;;;3.28;1.83;;;;;;;;;;4953192;28;20035;-77
2021/05/29 10:16:15;;;;;;;2.92;1.92;;;;;;;;;;4951489;29;20074;-75
2021/05/29 10:18:46;;;;;;;3.67;2.63;;;;;;;;;;4951233;29;20031;-75
2021/05/29 10:21:12;;;;;;;3.55;2.20;;;;;;;;;;4953043;28;20046;-75
2021/05/29 10:23:38;;;;;;;3.03;2.03;;;;;;;;;;4967701;28;20543;-76
2021/05/29 10:26:04;;;;;;;2.90;2.50;;;;;;;;;;4951479;29;20031;-75
2021/05/29 10:28:32;;;;;;;2.97;2.78;;;;;;;;;;4951619;29;20019;-75
2021/05/29 10:30:58;;;;;;;4.05;2.90;;;;;;;;;;4951746;28;20340;-76
2021/05/29 10:33:23;;;;;;;3.58;2.85;;;;;;;;;;4967439;28;20494;-75
2021/05/29 10:35:49;;;;;;;3.45;2.47;;;;;;;;;;4967519;28;20027;-74
2021/05/29 10:38:16;;;;;;;5.07;2.45;;;;;;;;;;4951656;28;20035;-76
2021/05/29 10:40:48;;;;;;;7.70;2.22;;;;;;;;;;4951977;28;20026;-74
2021/05/29 10:43:20;;;;;;;2.55;2.20;;;;;;;;;;4967565;28;20113;-75
2021/05/29 10:45:52;;;;;;;6.82;2.38;;;;;;;;;;4967690;28;20031;-76
2021/05/29 10:48:21;;;;;;;;;;;;;;;;;;4952118;29;20076;-74
2021/05/29 10:50:53;;;;;;;4.25;2.80;;;;;;;;;;4967661;28;19921;-75
2021/05/29 10:53:47;;;;;;;2.15;1.95;;;;;;;;;;4952741;28;20082;-77
2021/05/29 10:56:18;;;;;;;4.10;2.70;;;;;;;;;;4951221;28;20028;-75
2021/05/29 10:59:12;;;;;;;3.13;2.00;;;;;;;;;;4950354;28;20166;-76
2021/05/29 11:01:42;;;;;;;4.65;2.15;;;;;;;;;;4951286;28;20031;-76
2021/05/29 11:04:17;;;;;;;3.28;2.40;;;;;;;;;;4952947;28;20073;-76
2021/05/29 11:06:49;;;;;;;2.63;2.00;;;;;;;;;;4953268;28;20476;-74
2021/05/29 11:09:24;;;;;;;32.47;4.38;;;;;;;;;;4954071;28;20416;-76
2021/05/29 11:11:52;;;;;;;4.78;2.10;;;;;;;;;;4954368;28;20023;-76
2021/05/29 11:14:25;;;;;;;3.22;2.30;;;;;;;;;;4952085;29;20105;-77
2021/05/29 11:16:52;;;;;;;10.48;2.88;;;;;;;;;;4953033;29;20114;-75
2021/05/29 11:19:22;;;;;;;3.58;2.00;;;;;;;;;;4952213;28;20038;-75
2021/05/29 11:22:17;;;;;;;8.90;3.22;;;;;;;;;;4967618;28;20043;-76
2021/05/29 11:24:56;;;;;;;7.90;1.88;;;;;;;;;;4952458;28;20027;-76
2021/05/29 11:27:33;;;;;;;3.10;1.90;;;;;;;;;;4951397;28;20400;-75
2021/05/29 11:30:03;;;;;;;3.58;1.60;;;;;;;;;;4952266;28;20508;-75
2021/05/29 11:35:26;;;;;;;2.15;1.80;;;;;;;;;;4952292;28;20134;-77
2021/05/29 11:38:14;;;;;;;3.13;2.13;;;;;;;;;;4967464;28;20031;-76
2021/05/29 11:41:08;;;;;;;2.83;1.77;;;;;;;;;;4966761;28;20086;-75
2021/05/29 11:43:38;;;;;;;2.38;1.58;;;;;;;;;;4950404;28;20047;-76
2021/05/29 11:46:27;;;;;;;4.38;1.92;;;;;;;;;;4950315;28;20055;-75
2021/05/29 11:48:57;;;;;;;3.17;2.13;;;;;;;;;;4951914;28;20020;-74
2021/05/29 11:51:23;;;;;;;1.95;1.30;;;;;;;;;;4966325;28;20582;-75
2021/05/29 11:53:53;;;;;;;0.77;0.77;;;;;;;;;;4950281;29;20058;-74
2021/05/29 11:56:32;;;;;;;0.70;0.70;;;;;;;;;;4966286;28;20031;-75
2021/05/29 11:58:59;;;;;;;1.08;0.90;;;;;;;;;;4966406;28;20032;-75
2021/05/29 12:01:35;;;;;;;0.68;0.68;;;;;;;;;;4951335;28;20027;-76
2021/05/29 12:04:06;;;;;;;1.85;0.70;;;;;;;;;;4951505;28;20023;-75
2021/05/29 12:06:34;;;;;;;2.47;0.80;;;;;;;;;;4951141;28;20035;-75
2021/05/29 12:09:03;;;;;;;1.00;0.70;;;;;;;;;;4950104;29;20515;-76
2021/05/29 12:11:31;;;;;;;2.63;1.08;;;;;;;;;;4950084;28;20027;-76
2021/05/29 12:14:04;;;;;;;2.00;0.60;;;;;;;;;;4950226;28;20027;-75
2021/05/29 12:16:35;;;;;;;0.80;0.63;;;;;;;;;;4955570;28;20379;-75
2021/05/29 12:19:02;;;;;;;2.67;0.87;;;;;;;;;;4953847;28;20027;-75
2021/05/29 12:22:04;;;;;;;1.23;0.90;;;;;;;;;;4953781;28;20253;-76
2021/05/29 12:24:43;;;;;;;2.60;0.63;;;;;;;;;;4959396;28;20380;-75
2021/05/29 12:27:20;;;;;;;1.20;0.75;;;;;;;;;;4970014;28;20090;-76
2021/05/29 12:29:47;;;;;;;0.50;0.50;;;;;;;;;;4954817;28;20035;-75
2021/05/29 12:32:33;;;;;;;2.05;0.88;;;;;;;;;;4953476;28;20535;-75
2021/05/29 12:34:59;;;;;;;1.17;1.05;;;;;;;;;;4953898;28;20121;-74
2021/05/29 12:37:35;;;;;;;1.00;0.70;;;;;;;;;;4953468;28;20483;-75
2021/05/29 12:40:03;;;;;;;8.93;1.00;;;;;;;;;;4954014;28;20101;-76
2021/05/29 12:42:29;;;;;;;2.25;1.05;;;;;;;;;;4969253;28;20058;-75
2021/05/29 12:45:03;;;;;;;2.22;1.35;;;;;;;;;;4953485;28;20391;-76
2021/05/29 12:47:34;;;;;;;1.40;1.20;;;;;;;;;;4953683;29;20047;-75
2021/05/29 12:50:14;;;;;;;1.58;1.08;;;;;;;;;;4969559;28;20031;-76
2021/05/29 12:52:40;;;;;;;2.22;1.42;;;;;;;;;;4954140;28;20035;-75
2021/05/29 12:55:07;;;;;;;4.90;1.52;;;;;;;;;;4952849;29;20028;-76
2021/05/29 12:57:43;;;;;;;4.75;1.65;;;;;;;;;;4953039;29;20051;-75
2021/05/29 13:00:27;;;;;;;1.70;1.55;;;;;;;;;;4954424;28;20073;-73
2021/05/29 13:11:08;;;;;;;1.40;1.30;;;;;;;;;;4954806;28;20039;-76
2021/05/29 13:14:06;;;;;;;1.20;1.00;;;;;;;;;;4968961;28;20054;-75
2021/05/29 13:16:55;;;;;;;2.90;0.88;;;;;;;;;;4968600;28;20020;-76
2021/05/29 13:19:49;;;;;;;0.70;0.70;;;;;;;;;;4952913;29;20027;-76
2021/05/29 13:22:19;;;;;;;1.10;1.00;;;;;;;;;;4952739;28;20035;-75
2021/05/29 13:24:45;;;;;;;5.95;2.40;;;;;;;;;;4953922;28;20030;-75
2021/05/29 13:27:13;;;;;;;2.53;1.20;;;;;;;;;;4951835;28;20035;-75
2021/05/29 13:29:39;;;;;;;0.95;0.90;;;;;;;;;;4953632;28;20484;-75
2021/05/29 13:32:06;;;;;;;1.50;0.80;;;;;;;;;;4953520;28;20119;-75
2021/05/29 13:34:32;;;;;;;0.75;0.60;;;;;;;;;;4953852;28;20027;-75
2021/05/29 13:36:58;;;;;;;1.05;0.80;;;;;;;;;;4952621;28;20078;-77
2021/05/29 13:39:23;;;;;;;1.55;1.00;;;;;;;;;;4954200;28;20548;-75
2021/05/29 13:41:49;;;;;;;1.42;1.05;;;;;;;;;;4952286;28;20365;-75
2021/05/29 13:44:15;;;;;;;0.57;0.57;;;;;;;;;;4952642;29;20024;-75
2021/05/29 13:46:40;;;;;;;3.00;1.10;;;;;;;;;;4968722;28;20539;-75
2021/05/29 13:49:06;;;;;;;3.72;0.98;;;;;;;;;;4953650;28;20078;-76
2021/05/29 13:51:35;;;;;;;1.45;1.17;;;;;;;;;;4952076;29;20496;-75
2021/05/29 13:54:02;;;;;;;2.65;1.08;;;;;;;;;;4952136;29;20472;-75
2021/05/29 13:56:28;;;;;;;1.20;1.10;;;;;;;;;;4967881;28;20055;-75
2021/05/29 13:58:54;;;;;;;2.38;1.30;;;;;;;;;;4953399;29;20027;-76
2021/05/29 14:01:20;;;;;;;1.67;1.08;;;;;;;;;;4953350;28;20034;-76
2021/05/29 14:03:46;;;;;;;1.92;1.48;;;;;;;;;;4952186;28;20050;-75
2021/05/29 14:06:12;;;;;;;1.70;1.20;;;;;;;;;;4952240;29;20030;-76
2021/05/29 14:08:38;;;;;;;2.80;1.65;;;;;;;;;;4952191;29;20023;-76
2021/05/29 14:11:05;;;;;;;1.60;1.40;;;;;;;;;;4953334;28;20027;-75
2021/05/29 14:13:31;;;;;;;2.35;1.40;;;;;;;;;;4951837;29;20072;-75
2021/05/29 14:15:57;;;;;;;2.75;1.38;;;;;;;;;;4968533;28;20051;-76
2021/05/29 14:18:22;;;;;;;3.88;1.30;;;;;;;;;;4951895;28;20042;-76
2021/05/29 14:20:48;;;;;;;1.40;0.93;;;;;;;;;;4953116;28;20415;-76
2021/05/29 14:23:13;;;;;;;2.97;1.10;;;;;;;;;;4967879;28;20348;-77
2021/05/29 14:25:40;;;;;;;2.67;1.30;;;;;;;;;;4951322;28;20054;-76
2021/05/29 14:28:05;;;;;;;3.88;1.48;;;;;;;;;;4952873;28;20106;-77
2021/05/29 14:30:32;;;;;;;3.28;1.40;;;;;;;;;;4953022;28;20509;-76
2021/05/29 14:32:57;;;;;;;1.70;1.60;;;;;;;;;;4967532;28;20046;-76
2021/05/29 14:35:23;;;;;;;2.58;1.80;;;;;;;;;;4952767;28;20472;-77
2021/05/29 14:37:49;;;;;;;1.80;1.60;;;;;;;;;;4951076;28;20031;-75
2021/05/29 14:40:14;;;;;;;10.18;1.77;;;;;;;;;;4952768;28;20035;-78
2021/05/29 14:42:40;;;;;;;3.80;1.58;;;;;;;;;;4952372;28;20587;-74
2021/05/29 14:45:06;;;;;;;2.38;1.77;;;;;;;;;;4951114;29;20101;-77
2021/05/29 14:47:32;;;;;;;6.78;1.50;;;;;;;;;;4967258;28;20074;-79
2021/05/29 14:49:58;;;;;;;2.45;1.40;;;;;;;;;;4967517;28;20023;-76
2021/05/29 14:52:27;;;;;;;2.80;1.40;;;;;;;;;;4952548;28;20031;-76
2021/05/29 14:54:52;;;;;;;1.33;1.23;;;;;;;;;;4952679;28;20047;-75
2021/05/29 14:57:18;;;;;;;2.35;1.48;;;;;;;;;;4967033;28;20434;-75
2021/05/29 14:59:44;;;;;;;1.50;1.40;;;;;;;;;;4950517;29;20126;-75
2021/05/29 15:02:09;;;;;;;1.55;1.45;;;;;;;;;;4952239;28;20042;-76
2021/05/29 15:04:49;;;;;;;3.65;1.70;;;;;;;;;;4950729;29;20058;-75
2021/05/29 15:07:15;;;;;;;2.90;2.03;;;;;;;;;;4951936;28;20023;-75